Friday, May 06, 2016
11:08 UTC
  |  Log In   |  Register Free
Airport Search:

Pedro Bay Airport
(4K0)

Pedro Bay Airport Diagram
No Airport Diagram Available

FAA data valid effective Mar 31 2016 - May 26 2016 (unless otherwise noted).

 
 
 
 
 
 
 
 
 
 
 
 
 
 
Current Aviation Weather for 4K0

Weather Summary


Current weather conditions are not available for 4K0 - The nearest NOAA weather station is at ILI, (23.7 nm SW from 4K0)

The most recent METAR observation for 4K0 was updated at: 12:53 UTC
METAR for 4K0 is not available. Closest METAR is for
TAF for 4K0 is not available.
PAIL
060539Z 0606/0706 06008KT P6SM -RA BKN050 FM061600 11009KT P6SM VCSH OVC050

GlobalAir.com is loading additional information.
 Current Weather at


winds at mph
Pressure:
in
Humidity:
%
Wind:
at mph
Dew Point:
Visibility:
mi
4K0 NOAA Radar




Find All Airport Services Find A Hotel Find A Rental Car Find A Golf Course Find A Restaurant $100 Hamburger



Airport Weather Forecast for 4K0

Translated METAR for PAIL (1053 UTC)
METAR:
PAIL 061053Z AUTO 04006KT 10SM OVC050 05/03 A2941 RMK AO2 SLP962 T00500028 TSNO
Conditions at:
PAIL (Iliamna, AK) observed 1053 UTC 06 May 2016
Temperature:
5°C (41°F)
Dewpoint:
3°C (37.4°F) [RH = 86.9]
Pressure:
29.41 inches Hg (995.9 mb)
pressure at sea level is 962 in Hg
Winds:
from the NE (040 degrees) at 6.9 mph (6 knots: 3.1 m/s)
Visibility:
10 mile(s)
Ceiling:
5,000 feet AGL
Clouds:
Overcast Skies at 5,000 feet AGL
Remarks:
site is un-manned
site is automated and HAS a precipitation sensor

Translated TAF for PAIL (Iliamna, AK) (0539 UTC)
TAF text:
PAIL 060539Z 0606/0706 06008KT P6SM -RA BKN050
Forecast period:
Friday May 06 2016 06:00 UTC - Saturday May 07 2016 06:00 UTC
Forecast type:
FROM: standard forecast or significant change
Winds:
from the ENE (060 degrees) at 9.2 mph (8 knots: 4.1 m/s)
Visibility:
6 or more mile(s) (9.7+ km)
Ceiling:
5,000 feet AGL
Clouds:
Broken Cloud Cover at 5,000 feet AGL
Weather:
Light Rain
TAF text:
FM061600 11009KT P6SM VCSH OVC050
Forecast period:
Friday May 06 2016 16:00 UTC - Saturday May 07 2016 06:00 UTC
Forecast type:
FROM: standard forecast or significant change
Winds:
from the ESE (110 degrees) at 10.4 mph (9 knots: 4.6 m/s)
Visibility:
6 or more mile(s) (9.7+ km)
Ceiling:
5,000 feet AGL
Clouds:
Overcast Skies at 5,000 feet AGL
Weather:
Moderate In Vicinity Shower(s)
FBO's on the Field
FBO Company Facility Photos Services Transportation Aviation Fuel Prices: Prices include tax
Catering Weather Repair Courtesy Rental Type 100LL JetA JetA+ MOGAS 8087
 
Add another FBO Facility Photos Catering Weather Repair Courtesy Rental Type 100LL JetA JetA+ MOGAS 8087
Services Transportation Aviation Fuel Prices: Prices include tax
There are no FBO's currently reporting fuel at 4K0. List your FBO now


model-print
model-print
model-print
model-print